createdAt,value
2023-03-08T00:00:48.999Z,96955.97
2023-03-08T00:03:15.508Z,96960.91
2023-03-08T00:05:42.196Z,96960.78
2023-03-08T00:08:08.792Z,96978.09
2023-03-08T00:10:35.469Z,96969.09
2023-03-08T00:13:01.974Z,96969.38
2023-03-08T00:15:28.457Z,96967.97
2023-03-08T00:17:54.960Z,96969.09
2023-03-08T00:20:21.516Z,96965.66
2023-03-08T00:22:48.026Z,96963.84
2023-03-08T00:25:16.607Z,96970.34
2023-03-08T00:27:43.303Z,96968.03
2023-03-08T00:30:10.370Z,96968.56
2023-03-08T00:32:36.902Z,96965.28
2023-03-08T00:35:03.520Z,96968.31
2023-03-08T00:37:30.551Z,96981.19
2023-03-08T00:39:57.026Z,96973.72
2023-03-08T00:42:23.756Z,96972.94
2023-03-08T00:44:50.250Z,96993.41
2023-03-08T00:47:16.725Z,96997.28
2023-03-08T00:49:43.795Z,96988.34
2023-03-08T00:52:10.405Z,96978.16
2023-03-08T00:54:37.087Z,96952.28
2023-03-08T00:57:03.661Z,96952.28
2023-03-08T00:59:31.994Z,96956.19
2023-03-08T01:01:58.820Z,96949.31
2023-03-08T01:04:25.365Z,96931.38
2023-03-08T01:06:51.913Z,96922.72
2023-03-08T01:09:18.404Z,96920.91
2023-03-08T01:11:45.059Z,96926.53
2023-03-08T01:14:13.244Z,96920.72
2023-03-08T01:16:40.927Z,96901.75
2023-03-08T01:19:07.487Z,96915.34
2023-03-08T01:21:34.387Z,96910.09
2023-03-08T01:24:00.978Z,96908.09
2023-03-08T01:26:28.153Z,96910.47
2023-03-08T01:28:55.174Z,96906.56
2023-03-08T01:31:25.509Z,96904.66
2023-03-08T01:33:53.548Z,96895.06
2023-03-08T01:36:21.292Z,96890.31
2023-03-08T01:38:48.072Z,96893.75
2023-03-08T01:41:16.661Z,96894.47
2023-03-08T01:43:43.199Z,96893.56
2023-03-08T01:46:22.175Z,96890.63
2023-03-08T01:49:00.661Z,96896.59
2023-03-08T01:51:34.142Z,96891.25
2023-03-08T01:54:01.275Z,96879.13
2023-03-08T01:56:27.839Z,96871.66
2023-03-08T01:58:56.047Z,96874.06
2023-03-08T02:01:22.895Z,96876.06
2023-03-08T02:03:51.441Z,96879.88
2023-03-08T02:06:19.752Z,96879.47
2023-03-08T02:08:46.300Z,96881.00
2023-03-08T02:11:12.969Z,96875.78
2023-03-08T02:13:40.063Z,96879.22
2023-03-08T02:16:08.064Z,96883.25
2023-03-08T02:18:34.714Z,96887.94
2023-03-08T02:21:01.234Z,96880.22
2023-03-08T02:23:27.868Z,96884.63
2023-03-08T02:25:57.997Z,96878.72
2023-03-08T02:28:25.289Z,96867.19
2023-03-08T02:30:52.658Z,96862.25
2023-03-08T02:33:19.234Z,96854.28
2023-03-08T02:35:45.938Z,96853.88
2023-03-08T02:38:12.879Z,96851.25
2023-03-08T02:40:39.394Z,96850.38
2023-03-08T02:43:05.965Z,96848.97
2023-03-08T02:45:34.619Z,96840.63
2023-03-08T02:48:01.797Z,96840.34
2023-03-08T02:50:29.317Z,96838.53
2023-03-08T02:52:55.828Z,96831.09
2023-03-08T02:55:22.411Z,96837.91
2023-03-08T02:57:49.167Z,96832.56
2023-03-08T03:00:17.710Z,96839.44
2023-03-08T03:02:44.302Z,96829.41
2023-03-08T03:05:13.770Z,96829.94
2023-03-08T03:07:42.691Z,96826.78
2023-03-08T03:10:14.510Z,96819.44
2023-03-08T03:12:42.034Z,96814.19
2023-03-08T03:15:11.892Z,96808.25
2023-03-08T03:17:40.426Z,96801.38
2023-03-08T03:20:09.147Z,96788.84
2023-03-08T03:22:36.190Z,96786.31
2023-03-08T03:25:04.321Z,96776.53
2023-03-08T03:27:31.112Z,96765.13
2023-03-08T03:29:57.709Z,96764.84
2023-03-08T03:32:24.978Z,96758.41
2023-03-08T03:34:51.539Z,96760.03
2023-03-08T03:37:20.489Z,96762.34
2023-03-08T03:39:47.291Z,96763.72
2023-03-08T03:42:16.419Z,96763.03
2023-03-08T03:44:50.132Z,96767.28
2023-03-08T03:47:20.166Z,96761.63
2023-03-08T03:49:48.667Z,96752.66
2023-03-08T03:52:17.087Z,96743.19
2023-03-08T03:54:51.389Z,96741.81
2023-03-08T03:57:19.619Z,96734.59
2023-03-08T03:59:46.415Z,96730.19
2023-03-08T04:02:13.426Z,96736.59
2023-03-08T04:04:51.661Z,96739.69
2023-03-08T04:07:21.972Z,96740.44
2023-03-08T04:09:55.356Z,96746.16
2023-03-08T04:12:21.882Z,96741.63
2023-03-08T04:14:49.066Z,96728.41
2023-03-08T04:17:17.048Z,96722.19
2023-03-08T04:19:49.159Z,96709.16
2023-03-08T04:22:16.174Z,96706.28
2023-03-08T04:24:48.075Z,96719.97
2023-03-08T04:27:20.370Z,96712.09
2023-03-08T04:29:49.879Z,96714.41
2023-03-08T04:32:17.281Z,96711.34
2023-03-08T04:34:48.489Z,96708.16
2023-03-08T04:37:18.681Z,96718.16
2023-03-08T04:39:48.994Z,96720.53
2023-03-08T04:42:16.756Z,96712.25
2023-03-08T04:44:44.488Z,96704.94
2023-03-08T04:47:12.856Z,96692.41
2023-03-08T04:49:44.431Z,96691.13
2023-03-08T04:52:10.994Z,96683.59
2023-03-08T04:54:39.059Z,96684.94
2023-03-08T04:57:15.065Z,96674.81
2023-03-08T04:59:43.414Z,96674.19
2023-03-08T05:02:10.311Z,96670.09
2023-03-08T05:04:37.658Z,96663.97
2023-03-08T05:07:04.244Z,96657.63
2023-03-08T05:09:33.880Z,96651.94
2023-03-08T05:12:01.525Z,96658.50
2023-03-08T05:14:38.515Z,96653.13
2023-03-08T05:17:05.236Z,96644.22
2023-03-08T05:19:34.338Z,96643.91
2023-03-08T05:22:01.036Z,96643.28
2023-03-08T05:24:27.909Z,96658.97
2023-03-08T05:26:56.700Z,96652.00
2023-03-08T05:29:23.218Z,96655.97
2023-03-08T05:31:50.515Z,96652.53
2023-03-08T05:34:17.876Z,96655.16
2023-03-08T05:36:47.159Z,96648.63
2023-03-08T05:39:13.712Z,96655.16
2023-03-08T05:41:53.929Z,96642.91
2023-03-08T05:44:26.874Z,96638.78
2023-03-08T05:46:53.838Z,96618.38
2023-03-08T05:49:21.671Z,96613.50
2023-03-08T05:51:48.630Z,96616.13
2023-03-08T05:54:15.595Z,96614.19
2023-03-08T05:56:44.681Z,96607.00
2023-03-08T05:59:21.666Z,96606.81
2023-03-08T06:01:49.252Z,96617.16
2023-03-08T06:04:23.159Z,96618.47
2023-03-08T06:06:51.021Z,96623.09
2023-03-08T06:09:19.723Z,96622.94
2023-03-08T06:11:46.832Z,96628.00
2023-03-08T06:14:13.976Z,96621.94
2023-03-08T06:16:41.268Z,96623.44
2023-03-08T06:19:07.817Z,96622.13
2023-03-08T06:21:35.647Z,96622.47
2023-03-08T06:24:04.056Z,96615.63
2023-03-08T06:26:31.560Z,96610.38
2023-03-08T06:28:58.088Z,96606.28
2023-03-08T06:31:28.406Z,96601.72
2023-03-08T06:33:55.543Z,96597.66
2023-03-08T06:36:24.994Z,96604.16
2023-03-08T06:38:51.713Z,96594.38
2023-03-08T06:41:18.865Z,96580.63
2023-03-08T06:43:49.172Z,96579.84
2023-03-08T06:46:20.370Z,96581.63
2023-03-08T06:48:48.544Z,96572.78
2023-03-08T06:51:16.215Z,96565.28
2023-03-08T06:53:44.603Z,96566.13
2023-03-08T06:56:12.693Z,96558.28
2023-03-08T06:58:40.103Z,96554.53
2023-03-08T07:01:06.768Z,96549.44
2023-03-08T07:03:33.481Z,96555.50
2023-03-08T07:06:04.486Z,96555.84
2023-03-08T07:08:31.476Z,96560.09
2023-03-08T07:10:58.877Z,96549.78
2023-03-08T07:13:25.419Z,96539.97
2023-03-08T07:15:52.259Z,96538.84
2023-03-08T07:18:19.320Z,96523.94
2023-03-08T07:20:46.083Z,96530.34
2023-03-08T07:23:12.568Z,96529.84
2023-03-08T07:25:40.210Z,96533.09
2023-03-08T07:28:06.786Z,96535.09
2023-03-08T07:30:33.376Z,96523.31
2023-03-08T07:32:59.917Z,96525.44
2023-03-08T07:35:26.465Z,96523.16
2023-03-08T07:37:53.046Z,96518.59
2023-03-08T07:40:19.639Z,96518.09
2023-03-08T07:42:46.677Z,96503.22
2023-03-08T07:45:27.587Z,96502.53
2023-03-08T07:47:54.131Z,96497.63
2023-03-08T07:50:20.970Z,96496.50
2023-03-08T07:52:47.780Z,96487.66
2023-03-08T07:55:14.523Z,96490.25
2023-03-08T07:57:41.060Z,96478.66
2023-03-08T08:00:07.835Z,96485.34
2023-03-08T08:02:38.598Z,96477.00
2023-03-08T08:05:05.313Z,96474.25
2023-03-08T08:07:31.860Z,96456.53
2023-03-08T08:09:58.370Z,96460.47
2023-03-08T08:12:24.878Z,96446.72
2023-03-08T08:14:52.491Z,96446.72
2023-03-08T08:17:22.161Z,96439.19
2023-03-08T08:19:48.654Z,96439.84
2023-03-08T08:22:15.136Z,96428.00
2023-03-08T08:24:41.719Z,96424.75
2023-03-08T08:27:08.236Z,96425.38
2023-03-08T08:29:34.724Z,96409.16
2023-03-08T08:32:02.462Z,96402.81
2023-03-08T08:34:28.950Z,96397.72
2023-03-08T08:36:55.538Z,96376.97
2023-03-08T08:39:22.057Z,96362.72
2023-03-08T08:41:49.563Z,96364.19
2023-03-08T08:44:16.090Z,96365.31
2023-03-08T08:46:42.594Z,96359.94
2023-03-08T08:49:09.786Z,96358.16
2023-03-08T08:51:36.346Z,96350.16
2023-03-08T08:54:03.144Z,96357.38
2023-03-08T08:56:29.874Z,96362.47
2023-03-08T08:59:00.822Z,96352.81
2023-03-08T09:01:28.536Z,96324.34
2023-03-08T09:03:55.170Z,96347.94
2023-03-08T09:06:22.218Z,96320.28
2023-03-08T09:08:49.474Z,96345.00
2023-03-08T09:11:16.011Z,96343.69
2023-03-08T09:13:42.560Z,96325.84
2023-03-08T09:16:18.575Z,96348.25
2023-03-08T09:18:45.123Z,96343.03
2023-03-08T09:21:11.692Z,96341.72
2023-03-08T09:23:38.180Z,96333.22
2023-03-08T09:26:06.223Z,96327.16
2023-03-08T09:28:33.042Z,96316.50
2023-03-08T09:30:59.966Z,96309.16
2023-03-08T09:33:26.499Z,96306.69
2023-03-08T09:35:56.948Z,96293.09
2023-03-08T09:38:23.588Z,96283.09
2023-03-08T09:40:54.317Z,96286.03
2023-03-08T09:43:23.465Z,96270.97
2023-03-08T09:45:51.868Z,96272.91
2023-03-08T09:48:19.998Z,96277.00
2023-03-08T09:50:50.207Z,96263.06
2023-03-08T09:53:32.357Z,96262.50
2023-03-08T09:56:04.952Z,96260.50
2023-03-08T09:58:49.108Z,96262.59
2023-03-08T10:01:25.007Z,96251.59
2023-03-08T10:03:54.685Z,96246.34
2023-03-08T10:06:39.358Z,96239.28
2023-03-08T10:09:05.827Z,96226.47
2023-03-08T10:11:50.744Z,96223.28
2023-03-08T10:14:20.588Z,96237.13
2023-03-08T10:16:49.403Z,96224.09
2023-03-08T10:19:23.621Z,96227.03
2023-03-08T10:21:51.335Z,96222.47
2023-03-08T10:24:26.799Z,96207.75
2023-03-08T10:26:54.703Z,96219.88
2023-03-08T10:29:21.633Z,96207.38
2023-03-08T10:31:48.611Z,96213.00
2023-03-08T10:34:16.812Z,96214.22
2023-03-08T10:37:07.399Z,96204.44
2023-03-08T10:39:35.640Z,96204.63
2023-03-08T10:42:02.953Z,96200.81
2023-03-08T10:44:31.304Z,96197.91
2023-03-08T10:46:57.862Z,96190.09
2023-03-08T10:49:27.767Z,96188.13
2023-03-08T10:51:55.874Z,96187.13
2023-03-08T10:54:22.453Z,96181.38
2023-03-08T10:56:51.715Z,96172.19
2023-03-08T10:59:21.369Z,96174.72
2023-03-08T11:01:55.682Z,96173.72
2023-03-08T11:04:23.047Z,96158.75
2023-03-08T11:06:50.406Z,96160.81
2023-03-08T11:09:21.147Z,96169.47
2023-03-08T11:11:47.702Z,96164.06
2023-03-08T11:14:14.223Z,96159.53
2023-03-08T11:16:50.147Z,96152.13
2023-03-08T11:19:25.604Z,96154.72
2023-03-08T11:21:52.135Z,96153.97
2023-03-08T11:24:23.319Z,96142.19
2023-03-08T11:26:56.546Z,96149.13
2023-03-08T11:29:41.993Z,96159.25
2023-03-08T11:32:11.343Z,96151.31
2023-03-08T11:34:43.783Z,96155.59
2023-03-08T11:37:13.644Z,96156.59
2023-03-08T11:39:43.508Z,96163.50
2023-03-08T11:42:12.965Z,96143.00
2023-03-08T11:44:46.252Z,96142.00
2023-03-08T11:47:33.241Z,96145.84
2023-03-08T11:50:06.193Z,96150.31
2023-03-08T11:52:43.366Z,96140.78
2023-03-08T11:55:09.872Z,96147.66
2023-03-08T11:57:37.938Z,96147.25
2023-03-08T12:00:23.207Z,96147.00
2023-03-08T12:02:49.889Z,96142.53
2023-03-08T12:05:29.678Z,96148.03
2023-03-08T12:08:03.405Z,96143.16
2023-03-08T12:10:51.281Z,96141.28
2023-03-08T12:13:22.050Z,96144.94
2023-03-08T12:15:53.479Z,96141.66
2023-03-08T12:18:20.238Z,96144.28
2023-03-08T12:20:46.717Z,96139.13
2023-03-08T12:23:19.091Z,96141.41
2023-03-08T12:25:45.841Z,96139.13
2023-03-08T12:28:17.556Z,96139.34
2023-03-08T12:31:03.098Z,96155.00
2023-03-08T12:33:32.416Z,96144.22
2023-03-08T12:36:03.719Z,96143.38
2023-03-08T12:38:30.377Z,96151.47
2023-03-08T12:40:57.099Z,96154.72
2023-03-08T12:43:23.553Z,96153.63
2023-03-08T12:45:59.742Z,96147.78
2023-03-08T12:48:37.657Z,96154.72
2023-03-08T12:51:13.359Z,96162.66
2023-03-08T12:53:52.029Z,96156.75
2023-03-08T12:56:26.994Z,96163.03
2023-03-08T12:58:55.374Z,96143.47
2023-03-08T13:01:31.400Z,96153.63
2023-03-08T13:03:58.002Z,96160.88
2023-03-08T13:06:25.674Z,96147.06
2023-03-08T13:08:54.057Z,96155.41
2023-03-08T13:11:20.567Z,96157.47
2023-03-08T13:13:57.318Z,96167.63
2023-03-08T13:16:23.944Z,96162.06
2023-03-08T13:18:53.349Z,96150.72
2023-03-08T13:21:35.371Z,96152.28
2023-03-08T13:24:16.990Z,96158.81
2023-03-08T13:27:02.423Z,96147.09
2023-03-08T13:29:30.310Z,96144.19
2023-03-08T13:31:56.843Z,96153.06
2023-03-08T13:34:24.907Z,96147.75
2023-03-08T13:36:51.440Z,96147.13
2023-03-08T13:39:21.906Z,96138.03
2023-03-08T13:41:48.788Z,96129.97
2023-03-08T13:44:19.235Z,96133.81
2023-03-08T13:46:49.398Z,96141.50
2023-03-08T13:49:17.049Z,96130.00
2023-03-08T13:51:44.165Z,96132.66
2023-03-08T13:54:13.252Z,96118.47
2023-03-08T13:56:40.333Z,96128.78
2023-03-08T13:59:06.893Z,96138.50
2023-03-08T14:01:33.496Z,96128.91
2023-03-08T14:04:01.396Z,96112.28
2023-03-08T14:06:30.099Z,96118.25
2023-03-08T14:08:59.565Z,96113.34
2023-03-08T14:11:30.278Z,96085.84
2023-03-08T14:13:57.198Z,96104.22
2023-03-08T14:16:42.146Z,96105.06
2023-03-08T14:19:10.033Z,96098.31
2023-03-08T14:21:36.740Z,96099.56
2023-03-08T14:24:06.802Z,96087.47
2023-03-08T14:26:40.414Z,96097.63
2023-03-08T14:29:11.883Z,96108.00
2023-03-08T14:31:39.528Z,96105.66
2023-03-08T14:34:16.981Z,96105.31
2023-03-08T14:36:46.827Z,96107.19
2023-03-08T14:39:19.989Z,96099.97
2023-03-08T14:41:46.523Z,96101.94
2023-03-08T14:44:39.547Z,96091.66
2023-03-08T14:47:10.020Z,96089.69
2023-03-08T14:49:36.529Z,96088.94
2023-03-08T14:52:03.139Z,96082.41
2023-03-08T14:54:33.750Z,96075.97
2023-03-08T14:57:19.810Z,96075.31
2023-03-08T14:59:46.448Z,96074.75
2023-03-08T15:02:14.114Z,96090.53
2023-03-08T15:04:41.204Z,96089.56
2023-03-08T15:07:08.306Z,96080.91
2023-03-08T15:09:34.832Z,96085.19
2023-03-08T15:12:01.700Z,96079.72
2023-03-08T15:14:28.951Z,96073.34
2023-03-08T15:16:55.459Z,96082.44
2023-03-08T15:19:21.965Z,96067.75
2023-03-08T15:21:48.507Z,96068.06
2023-03-08T15:24:17.468Z,96078.91
2023-03-08T15:26:44.249Z,96062.75
2023-03-08T15:29:22.922Z,96062.31
2023-03-08T15:31:49.515Z,96059.91
2023-03-08T15:34:16.048Z,96056.38
2023-03-08T15:36:42.598Z,96054.75
2023-03-08T15:39:10.606Z,96050.84
2023-03-08T15:41:37.150Z,96053.28
2023-03-08T15:44:03.746Z,96062.81
2023-03-08T15:46:30.329Z,96056.56
2023-03-08T15:48:56.881Z,96061.41
2023-03-08T15:51:24.811Z,96052.19
2023-03-08T15:53:51.311Z,96046.91
2023-03-08T15:56:17.802Z,96063.22
2023-03-08T15:58:44.293Z,96053.16
2023-03-08T16:01:12.062Z,96043.81
2023-03-08T16:03:38.599Z,96060.94
2023-03-08T16:06:09.192Z,96056.00
2023-03-08T16:08:36.672Z,96050.66
2023-03-08T16:11:09.886Z,96056.38
2023-03-08T16:13:36.864Z,96060.66
2023-03-08T16:16:03.950Z,96061.47
2023-03-08T16:18:30.880Z,96054.56
2023-03-08T16:20:57.813Z,96046.75
2023-03-08T16:23:24.374Z,96051.69
2023-03-08T16:26:14.247Z,96045.34
2023-03-08T16:28:43.493Z,96040.66
2023-03-08T16:31:10.042Z,96040.06
2023-03-08T16:33:36.776Z,96053.66
2023-03-08T16:36:03.837Z,96051.88
2023-03-08T16:38:30.675Z,96047.13
2023-03-08T16:41:11.612Z,96049.28
2023-03-08T16:43:46.248Z,96059.72
2023-03-08T16:46:17.642Z,96049.63
2023-03-08T16:48:44.253Z,96048.59
2023-03-08T16:51:13.716Z,96052.25
2023-03-08T16:53:40.377Z,96046.75
2023-03-08T16:56:06.919Z,96046.91
2023-03-08T16:58:33.412Z,96047.13
2023-03-08T17:00:59.968Z,96021.16
2023-03-08T17:03:26.510Z,96013.59
2023-03-08T17:05:53.116Z,96020.06
2023-03-08T17:08:19.683Z,96027.00
2023-03-08T17:10:46.220Z,96031.72
2023-03-08T17:13:12.715Z,96034.16
2023-03-08T17:15:40.131Z,96032.81
2023-03-08T17:18:06.924Z,96035.03
2023-03-08T17:20:33.464Z,96031.53
2023-03-08T17:23:00.575Z,96030.31
2023-03-08T17:25:27.512Z,96031.72
2023-03-08T17:27:54.003Z,96034.78
2023-03-08T17:30:20.549Z,96032.31
2023-03-08T17:32:47.515Z,96034.56
2023-03-08T17:35:14.020Z,96035.16
2023-03-08T17:37:41.854Z,96029.66
2023-03-08T17:40:11.818Z,96025.59
2023-03-08T17:42:38.422Z,96030.09
2023-03-08T17:45:08.387Z,96041.03
2023-03-08T17:47:35.729Z,96026.75
2023-03-08T17:50:02.533Z,96044.50
2023-03-08T17:52:29.139Z,96041.81
2023-03-08T17:54:55.694Z,96043.28
2023-03-08T17:57:22.318Z,96042.41
2023-03-08T17:59:48.945Z,96055.84
2023-03-08T18:02:16.675Z,96038.75
2023-03-08T18:04:47.136Z,96057.66
2023-03-08T18:07:14.754Z,96057.47
2023-03-08T18:09:41.320Z,96039.16
2023-03-08T18:12:11.598Z,96045.50
2023-03-08T18:14:40.188Z,96043.84
2023-03-08T18:17:06.962Z,96033.09
2023-03-08T18:19:33.518Z,96033.34
2023-03-08T18:22:00.062Z,96024.78
2023-03-08T18:24:27.499Z,96037.22
2023-03-08T18:26:54.197Z,96037.81
2023-03-08T18:29:20.681Z,96024.97
2023-03-08T18:31:47.722Z,96025.00
2023-03-08T18:34:14.933Z,96033.97
2023-03-08T18:36:41.475Z,96035.75
2023-03-08T18:39:10.438Z,96041.03
2023-03-08T18:41:37.118Z,96034.97
2023-03-08T18:44:03.945Z,96037.25
2023-03-08T18:46:31.209Z,96034.03
2023-03-08T18:48:58.824Z,96043.31
2023-03-08T18:51:25.386Z,96037.81
2023-03-08T18:53:53.229Z,96036.56
2023-03-08T18:56:19.800Z,96040.00
2023-03-08T18:58:46.510Z,96026.44
2023-03-08T19:01:14.066Z,96027.66
2023-03-08T19:03:40.897Z,96021.97
2023-03-08T19:06:07.426Z,96031.72
2023-03-08T19:08:34.008Z,96031.72
2023-03-08T19:11:09.309Z,96013.22
2023-03-08T19:13:36.010Z,96023.19
2023-03-08T19:16:02.773Z,96029.09
2023-03-08T19:18:30.046Z,96026.84
2023-03-08T19:20:59.989Z,96024.59
2023-03-08T19:23:26.728Z,96021.34
2023-03-08T19:26:11.574Z,96020.53
2023-03-08T19:28:38.397Z,96036.06
2023-03-08T19:31:04.925Z,96016.69
2023-03-08T19:33:31.970Z,96014.25
2023-03-08T19:35:58.557Z,96024.00
2023-03-08T19:38:25.079Z,96022.78
2023-03-08T19:40:51.562Z,96024.00
2023-03-08T19:43:18.143Z,96019.75
2023-03-08T19:45:48.272Z,96027.91
2023-03-08T19:48:14.840Z,96023.81
2023-03-08T19:50:44.479Z,96024.41
2023-03-08T19:53:11.169Z,96018.75
2023-03-08T19:55:37.854Z,96018.94
2023-03-08T19:58:06.197Z,96019.75
2023-03-08T20:00:32.847Z,96021.16
2023-03-08T20:03:02.259Z,96022.19
2023-03-08T20:05:29.034Z,96022.63
2023-03-08T20:07:55.586Z,96025.66
2023-03-08T20:10:22.146Z,96027.09
2023-03-08T20:12:49.945Z,96037.00
2023-03-08T20:15:16.448Z,96036.44
2023-03-08T20:17:43.189Z,96053.25
2023-03-08T20:20:10.342Z,96055.09
2023-03-08T20:22:36.874Z,96059.16
2023-03-08T20:25:03.451Z,96062.22
2023-03-08T20:27:30.017Z,96074.81
2023-03-08T20:29:56.611Z,96072.59
2023-03-08T20:32:23.438Z,96077.66
2023-03-08T20:34:49.990Z,96082.53
2023-03-08T20:37:16.568Z,96088.00
2023-03-08T20:39:44.831Z,96098.78
2023-03-08T20:42:11.339Z,96103.03
2023-03-08T20:44:37.844Z,96100.78
2023-03-08T20:47:04.365Z,96114.19
2023-03-08T20:49:30.873Z,96111.75
2023-03-08T20:51:57.377Z,96117.44
2023-03-08T20:54:23.860Z,96104.25
2023-03-08T20:56:50.666Z,96108.09
2023-03-08T20:59:20.357Z,96123.13
2023-03-08T21:01:47.122Z,96129.41
2023-03-08T21:04:13.717Z,96133.47
2023-03-08T21:06:40.248Z,96119.25
2023-03-08T21:09:06.906Z,96104.03
2023-03-08T21:11:33.430Z,96095.50
2023-03-08T21:13:59.946Z,96102.41
2023-03-08T21:16:27.094Z,96084.16
2023-03-08T21:18:58.428Z,96084.56
2023-03-08T21:21:32.376Z,96078.69
2023-03-08T21:23:59.551Z,96071.75
2023-03-08T21:26:26.394Z,96080.91
2023-03-08T21:28:53.276Z,96074.41
2023-03-08T21:31:23.481Z,96087.41
2023-03-08T21:33:50.980Z,96081.91
2023-03-08T21:36:17.648Z,96080.31
2023-03-08T21:38:44.272Z,96078.88
2023-03-08T21:41:37.662Z,96089.84
2023-03-08T21:44:06.084Z,96079.28
2023-03-08T21:46:32.814Z,96091.03
2023-03-08T21:48:59.328Z,96103.03
2023-03-08T21:51:26.228Z,96104.44
2023-03-08T21:53:52.737Z,96101.81
2023-03-08T21:56:19.808Z,96093.28
2023-03-08T21:58:46.351Z,96089.84
2023-03-08T22:01:22.993Z,96092.25
2023-03-08T22:03:50.048Z,96093.28
2023-03-08T22:06:16.603Z,96108.53
2023-03-08T22:08:43.106Z,96114.78
2023-03-08T22:11:09.610Z,96114.16
2023-03-08T22:13:36.083Z,96108.53
2023-03-08T22:16:02.652Z,96106.47
2023-03-08T22:18:29.678Z,96076.44
2023-03-08T22:20:56.218Z,96071.19
2023-03-08T22:23:22.839Z,96068.72
2023-03-08T22:25:49.395Z,96071.59
2023-03-08T22:28:15.937Z,96064.66
2023-03-08T22:30:42.438Z,96067.53
2023-03-08T22:33:09.090Z,96073.00
2023-03-08T22:35:35.685Z,96063.25
2023-03-08T22:38:02.232Z,96044.38
2023-03-08T22:40:28.735Z,96032.59
2023-03-08T22:42:55.221Z,96031.81
2023-03-08T22:45:21.839Z,96041.72
2023-03-08T22:47:48.384Z,96078.47
2023-03-08T22:50:14.866Z,96057.38
2023-03-08T22:52:41.430Z,96049.66
2023-03-08T22:55:08.051Z,96062.66
2023-03-08T22:57:36.115Z,96052.09
2023-03-08T23:00:02.650Z,96053.50
2023-03-08T23:02:31.258Z,96050.06
2023-03-08T23:04:58.509Z,96029.97
2023-03-08T23:07:25.037Z,96022.25
2023-03-08T23:09:53.292Z,96022.47
2023-03-08T23:12:19.853Z,96012.94
2023-03-08T23:14:46.406Z,96012.72
2023-03-08T23:17:13.292Z,95994.25
2023-03-08T23:19:41.842Z,95984.91
2023-03-08T23:22:08.366Z,95993.25
2023-03-08T23:24:34.864Z,95974.78
2023-03-08T23:27:03.387Z,95975.41
2023-03-08T23:29:29.996Z,95965.25
2023-03-08T23:31:56.560Z,95961.59
2023-03-08T23:34:23.103Z,95962.41
2023-03-08T23:36:49.580Z,95959.19
2023-03-08T23:39:16.144Z,95953.91
2023-03-08T23:41:42.708Z,95955.31
2023-03-08T23:44:09.781Z,95955.09
2023-03-08T23:46:36.337Z,95935.84
2023-03-08T23:49:02.985Z,95915.16
2023-03-08T23:51:30.425Z,95909.88
2023-03-08T23:53:57.673Z,95894.25
2023-03-08T23:56:26.919Z,95896.47
2023-03-08T23:58:57.153Z,95891.00
